Peary Spirit — C6YM3 — position and weather

sailwx.info

Track history (hours):
 
Tides and Currents Weather Stations Pressure Air Temp Water Temp Dewpoint Dewpoint Depression Visibility Wind Speed Wind Dir Waves Ship Positions

Peary Spirit

Last reported at 2015-Mar-24 03:07 UTC. Time now 2015-Mar-27 06:55 UTC.
Position N 52°18' E 003°15'.

Length 249 m; draft 9.5 m.

Type: Tanker. MMSI: 311027600.

Date/timePositionNaut miles runAvg speedWind from/ knotsBaromVisibWave heightAir tempDewpointWater temp
2015-Mar-24 03:07N 52°18' E 003°15'915.7
2015-Mar-24 02:31N 52°12' E 003°27'1515.1
2015-Mar-24 01:34N 52°04' E 003°46'1212.1
2015-Mar-24 00:33N 51°59' E 004°04'1 0.8
2015-Mar-23 23:32N 51°58' E 004°04'0 0.0
2015-Mar-23 22:32N 51°58' E 004°04'0 0.0
2015-Mar-23 21:32N 51°58' E 004°04'0 0.0
2015-Mar-23 20:32N 51°58' E 004°04'0 0.0
2015-Mar-23 19:32N 51°58' E 004°04'0 0.0
2015-Mar-23 18:32N 51°58' E 004°04'0 0.0
2015-Mar-23 17:32N 51°58' E 004°04'0 0.0
2015-Mar-23 16:32N 51°58' E 004°04'0 0.0
2015-Mar-23 15:32N 51°58' E 004°04'0 0.0
2015-Mar-23 14:32N 51°58' E 004°04'0 0.0
2015-Mar-23 13:32N 51°58' E 004°04'0 0.0
2015-Mar-23 12:32N 51°58' E 004°04'0 0.0
2015-Mar-23 11:32N 51°58' E 004°04'0 0.0
2015-Mar-23 10:29N 51°58' E 004°04'0 0.0
2015-Mar-23 09:32N 51°58' E 004°04'0 0.0
2015-Mar-23 08:32N 51°58' E 004°04'0 0.0
2015-Mar-23 07:32N 51°58' E 004°04'0 0.0
2015-Mar-23 06:27N 51°58' E 004°04'0 0.0
2015-Mar-23 05:29N 51°58' E 004°04'0 0.0
2015-Mar-23 04:32N 51°58' E 004°04'0 0.0
2015-Mar-23 03:32N 51°58' E 004°04'0 0.0
2015-Mar-23 02:32N 51°58' E 004°04'0 0.0
2015-Mar-23 01:32N 51°58' E 004°04'0 0.0
2015-Mar-23 00:32N 51°58' E 004°04'0 0.0
2015-Mar-22 23:32N 51°58' E 004°04'0 0.0
2015-Mar-22 22:32N 51°58' E 004°04'0 0.0
2015-Mar-22 21:32N 51°58' E 004°04'0 0.0
2015-Mar-22 20:32N 51°58' E 004°04'0 0.0
2015-Mar-22 19:32N 51°58' E 004°04'0 0.0
2015-Mar-22 18:32N 51°58' E 004°04'0 0.1
2015-Mar-22 17:33N 51°58' E 004°04'3 3.3
2015-Mar-22 16:33N 51°60' E 003°60'6 5.5
2015-Mar-22 15:33N 52°00' E 003°51'10 9.8
2015-Mar-22 14:33N 51°58' E 003°35'8 7.9
2015-Mar-22 13:32N 51°56' E 003°23'7 5.8
2015-Mar-22 12:21N 51°56' E 003°11'1 0.5
2015-Mar-22 10:25N 51°56' E 003°13'1 0.3
2015-Mar-22 07:07N 51°56' E 003°12'0 0.3
2015-Mar-22 06:26N 51°56' E 003°12'36 5.9
2015-Mar-22 00:24N 52°30' E 002°55'  
Track history (hours):
 
Tides and Currents Weather Stations Pressure Air Temp Water Temp Dewpoint Dewpoint Depression Visibility Wind Speed Wind Dir Waves Ship Positions

Peary Spirit

Last reported at 2015-Mar-24 03:07 UTC. Time now 2015-Mar-27 06:55 UTC.
Position N 52°18' E 003°15'.

Length 249 m; draft 9.5 m.

Type: Tanker. MMSI: 311027600.

Date/timePositionNaut miles runAvg speedWind from/ knotsBaromVisibWave heightAir tempDewpointWater temp
2015-Mar-24 03:07N 52°18' E 003°15'915.7
2015-Mar-24 02:31N 52°12' E 003°27'1515.1
2015-Mar-24 01:34N 52°04' E 003°46'1212.1
2015-Mar-24 00:33N 51°59' E 004°04'1 0.8
2015-Mar-23 23:32N 51°58' E 004°04'0 0.0
2015-Mar-23 22:32N 51°58' E 004°04'0 0.0
2015-Mar-23 21:32N 51°58' E 004°04'0 0.0
2015-Mar-23 20:32N 51°58' E 004°04'0 0.0
2015-Mar-23 19:32N 51°58' E 004°04'0 0.0
2015-Mar-23 18:32N 51°58' E 004°04'0 0.0
2015-Mar-23 17:32N 51°58' E 004°04'0 0.0
2015-Mar-23 16:32N 51°58' E 004°04'0 0.0
2015-Mar-23 15:32N 51°58' E 004°04'0 0.0
2015-Mar-23 14:32N 51°58' E 004°04'0 0.0
2015-Mar-23 13:32N 51°58' E 004°04'0 0.0
2015-Mar-23 12:32N 51°58' E 004°04'0 0.0
2015-Mar-23 11:32N 51°58' E 004°04'0 0.0
2015-Mar-23 10:29N 51°58' E 004°04'0 0.0
2015-Mar-23 09:32N 51°58' E 004°04'0 0.0
2015-Mar-23 08:32N 51°58' E 004°04'0 0.0
2015-Mar-23 07:32N 51°58' E 004°04'0 0.0
2015-Mar-23 06:27N 51°58' E 004°04'0 0.0
2015-Mar-23 05:29N 51°58' E 004°04'0 0.0
2015-Mar-23 04:32N 51°58' E 004°04'0 0.0
2015-Mar-23 03:32N 51°58' E 004°04'0 0.0
2015-Mar-23 02:32N 51°58' E 004°04'0 0.0
2015-Mar-23 01:32N 51°58' E 004°04'0 0.0
2015-Mar-23 00:32N 51°58' E 004°04'0 0.0
2015-Mar-22 23:32N 51°58' E 004°04'0 0.0
2015-Mar-22 22:32N 51°58' E 004°04'0 0.0
2015-Mar-22 21:32N 51°58' E 004°04'0 0.0
2015-Mar-22 20:32N 51°58' E 004°04'0 0.0
2015-Mar-22 19:32N 51°58' E 004°04'0 0.0
2015-Mar-22 18:32N 51°58' E 004°04'0 0.1
2015-Mar-22 17:33N 51°58' E 004°04'3 3.3
2015-Mar-22 16:33N 51°60' E 003°60'6 5.5
2015-Mar-22 15:33N 52°00' E 003°51'10 9.8
2015-Mar-22 14:33N 51°58' E 003°35'8 7.9
2015-Mar-22 13:32N 51°56' E 003°23'7 5.8
2015-Mar-22 12:21N 51°56' E 003°11'1 0.5
2015-Mar-22 10:25N 51°56' E 003°13'1 0.3
2015-Mar-22 07:07N 51°56' E 003°12'0 0.3
2015-Mar-22 06:26N 51°56' E 003°12'36 5.9
2015-Mar-22 00:24N 52°30' E 002°55'  

Dump ship's entire track history